createdAt,value
2023-05-19T00:02:26.135Z,7.35
2023-05-19T00:04:55.086Z,7.29
2023-05-19T00:07:28.999Z,7.28
2023-05-19T00:09:57.153Z,7.23
2023-05-19T00:12:25.264Z,7.25
2023-05-19T00:14:53.328Z,7.22
2023-05-19T00:17:21.552Z,7.16
2023-05-19T00:19:50.103Z,7.19
2023-05-19T00:22:17.933Z,7.16
2023-05-19T00:24:45.758Z,7.15
2023-05-19T00:27:13.732Z,7.15
2023-05-19T00:29:41.620Z,7.15
2023-05-19T00:32:10.264Z,7.11
2023-05-19T00:34:38.255Z,7.12
2023-05-19T00:37:06.245Z,7.09
2023-05-19T00:39:34.215Z,7.05
2023-05-19T00:42:02.819Z,7.05
2023-05-19T00:44:30.683Z,7.01
2023-05-19T00:46:58.788Z,7.01
2023-05-19T00:49:26.766Z,7.02
2023-05-19T00:51:55.727Z,6.98
2023-05-19T00:54:23.887Z,6.98
2023-05-19T00:56:51.928Z,6.98
2023-05-19T00:59:20.000Z,6.97
2023-05-19T01:01:49.143Z,6.92
2023-05-19T01:07:12.525Z,6.84
2023-05-19T01:09:40.869Z,6.83
2023-05-19T01:12:09.924Z,6.79
2023-05-19T01:14:37.934Z,6.76
2023-05-19T01:17:30.610Z,6.76
2023-05-19T01:20:25.995Z,6.77
2023-05-19T01:23:21.551Z,6.74
2023-05-19T01:26:09.791Z,6.74
2023-05-19T01:28:40.678Z,6.72
2023-05-19T01:31:12.060Z,6.67
2023-05-19T01:33:41.719Z,6.63
2023-05-19T01:36:10.855Z,6.66
2023-05-19T01:38:40.058Z,6.60
2023-05-19T01:41:09.703Z,6.54
2023-05-19T01:43:38.556Z,6.54
2023-05-19T01:46:08.482Z,6.54
2023-05-19T01:48:38.564Z,6.50
2023-05-19T01:51:06.794Z,6.47
2023-05-19T01:53:37.506Z,6.47
2023-05-19T01:56:07.103Z,6.45
2023-05-19T01:58:47.172Z,6.46
2023-05-19T02:01:45.841Z,6.42
2023-05-19T02:04:22.861Z,6.39
2023-05-19T02:06:56.671Z,6.39
2023-05-19T02:09:51.731Z,6.33
2023-05-19T02:12:40.791Z,6.33
2023-05-19T02:15:17.057Z,6.36
2023-05-19T02:17:51.671Z,6.33
2023-05-19T02:20:19.864Z,6.30
2023-05-19T02:22:47.971Z,6.30
2023-05-19T02:25:16.094Z,6.28
2023-05-19T02:27:44.633Z,6.29
2023-05-19T02:30:12.722Z,6.29
2023-05-19T02:32:40.731Z,6.26
2023-05-19T02:35:09.122Z,6.25
2023-05-19T02:37:38.928Z,6.24
2023-05-19T02:40:07.682Z,6.22
2023-05-19T02:42:35.667Z,6.24
2023-05-19T02:45:03.666Z,6.19
2023-05-19T02:47:31.758Z,6.19
2023-05-19T02:50:01.499Z,6.19
2023-05-19T02:52:31.789Z,6.17
2023-05-19T02:54:59.894Z,6.14
2023-05-19T02:57:29.214Z,6.12
2023-05-19T02:59:57.388Z,6.12
2023-05-19T03:02:25.376Z,6.11
2023-05-19T03:04:53.981Z,6.11
2023-05-19T03:07:25.237Z,6.10
2023-05-19T03:09:53.674Z,6.08
2023-05-19T03:12:21.885Z,6.08
2023-05-19T03:14:50.040Z,6.04
2023-05-19T03:17:18.069Z,6.01
2023-05-19T03:19:46.391Z,6.02
2023-05-19T03:22:14.523Z,6.00
2023-05-19T03:24:42.421Z,5.98
2023-05-19T03:27:12.426Z,5.98
2023-05-19T03:29:40.620Z,6.00
2023-05-19T03:32:08.797Z,5.97
2023-05-19T03:34:37.571Z,5.97
2023-05-19T03:37:06.408Z,5.94
2023-05-19T03:39:35.871Z,5.95
2023-05-19T03:42:04.249Z,5.90
2023-05-19T03:44:32.939Z,5.90
2023-05-19T03:47:01.792Z,5.94
2023-05-19T03:50:02.239Z,6.02
2023-05-19T03:52:48.942Z,6.04
2023-05-19T03:55:37.314Z,6.10
2023-05-19T03:58:05.346Z,6.14
2023-05-19T04:00:33.973Z,6.21
2023-05-19T04:03:02.576Z,6.25
2023-05-19T04:05:30.716Z,6.32
2023-05-19T04:07:58.554Z,6.38
2023-05-19T04:10:26.415Z,6.50
2023-05-19T04:12:55.912Z,6.81
2023-05-19T04:15:23.811Z,6.92
2023-05-19T04:17:51.772Z,7.15
2023-05-19T04:20:19.786Z,7.32
2023-05-19T04:22:47.686Z,7.46
2023-05-19T04:25:15.733Z,7.88
2023-05-19T04:27:43.806Z,8.29
2023-05-19T04:30:13.037Z,8.52
2023-05-19T04:32:41.489Z,8.67
2023-05-19T04:35:09.629Z,8.68
2023-05-19T04:37:39.112Z,9.11
2023-05-19T04:40:11.224Z,9.47
2023-05-19T04:42:45.837Z,9.74
2023-05-19T04:45:14.880Z,10.11
2023-05-19T04:47:48.304Z,10.39
2023-05-19T04:50:16.918Z,10.55
2023-05-19T04:52:47.910Z,10.83
2023-05-19T04:55:17.280Z,11.33
2023-05-19T04:57:47.015Z,11.49
2023-05-19T05:00:15.877Z,11.84
2023-05-19T05:02:59.796Z,12.19
2023-05-19T05:05:31.205Z,12.19
2023-05-19T05:07:59.542Z,12.73
2023-05-19T05:10:30.908Z,12.84
2023-05-19T05:13:00.901Z,12.97
2023-05-19T05:15:29.910Z,13.00
2023-05-19T05:18:00.537Z,12.57
2023-05-19T05:20:28.849Z,12.47
2023-05-19T05:22:58.174Z,12.68
2023-05-19T05:25:27.769Z,12.95
2023-05-19T05:27:55.870Z,13.30
2023-05-19T05:30:24.733Z,13.70
2023-05-19T05:32:53.710Z,13.74
2023-05-19T05:35:41.078Z,13.14
2023-05-19T05:38:11.684Z,12.52
2023-05-19T05:40:40.330Z,13.02
2023-05-19T05:43:09.371Z,13.35
2023-05-19T05:45:43.638Z,13.45
2023-05-19T05:48:11.942Z,13.83
2023-05-19T05:50:40.868Z,14.05
2023-05-19T05:53:12.494Z,13.95
2023-05-19T05:55:41.915Z,14.18
2023-05-19T05:58:11.352Z,13.71
2023-05-19T06:00:39.468Z,13.46
2023-05-19T06:03:07.787Z,13.59
2023-05-19T06:05:36.528Z,13.95
2023-05-19T06:08:04.927Z,14.08
2023-05-19T06:10:33.426Z,14.26
2023-05-19T06:13:01.696Z,14.95
2023-05-19T06:15:29.681Z,14.90
2023-05-19T06:18:08.665Z,14.47
2023-05-19T06:20:36.593Z,14.30
2023-05-19T06:23:04.712Z,14.25
2023-05-19T06:25:33.129Z,14.55
2023-05-19T06:28:02.091Z,14.72
2023-05-19T06:30:30.085Z,15.32
2023-05-19T06:33:09.914Z,16.04
2023-05-19T06:35:50.639Z,16.33
2023-05-19T06:38:18.724Z,16.65
2023-05-19T06:40:49.660Z,17.22
2023-05-19T06:43:18.162Z,17.45
2023-05-19T06:45:54.939Z,17.15
2023-05-19T06:48:24.330Z,17.67
2023-05-19T06:50:52.317Z,17.86
2023-05-19T06:53:21.400Z,17.65
2023-05-19T06:55:58.704Z,17.91
2023-05-19T06:58:29.773Z,18.01
2023-05-19T07:00:58.525Z,17.94
2023-05-19T07:03:31.267Z,17.38
2023-05-19T07:06:00.301Z,18.04
2023-05-19T07:08:31.238Z,17.83
2023-05-19T07:11:02.180Z,17.97
2023-05-19T07:13:30.257Z,18.42
2023-05-19T07:15:58.453Z,18.15
2023-05-19T07:18:31.937Z,17.73
2023-05-19T07:21:00.260Z,17.62
2023-05-19T07:23:28.819Z,17.39
2023-05-19T07:25:57.584Z,16.90
2023-05-19T07:28:26.106Z,17.43
2023-05-19T07:30:54.652Z,18.02
2023-05-19T07:33:22.697Z,18.74
2023-05-19T07:35:50.649Z,19.10
2023-05-19T07:38:18.747Z,18.93
2023-05-19T07:40:46.718Z,19.12
2023-05-19T07:43:14.707Z,19.67
2023-05-19T07:45:42.775Z,19.42
2023-05-19T07:48:10.978Z,19.62
2023-05-19T07:50:39.176Z,19.87
2023-05-19T07:53:07.108Z,19.79
2023-05-19T07:55:35.056Z,19.72
2023-05-19T07:58:03.319Z,19.86
2023-05-19T08:00:31.620Z,20.16
2023-05-19T08:03:02.281Z,19.87
2023-05-19T08:05:30.842Z,19.61
2023-05-19T08:07:58.946Z,19.28
2023-05-19T08:10:27.197Z,18.52
2023-05-19T08:12:55.127Z,17.89
2023-05-19T08:15:26.584Z,17.22
2023-05-19T08:17:54.611Z,17.15
2023-05-19T08:20:24.397Z,17.38
2023-05-19T08:22:52.827Z,17.45
2023-05-19T08:25:21.125Z,17.70
2023-05-19T08:27:49.149Z,17.79
2023-05-19T08:30:17.537Z,17.52
2023-05-19T08:32:45.912Z,17.62
2023-05-19T08:35:14.100Z,17.46
2023-05-19T08:37:42.381Z,17.53
2023-05-19T08:40:18.642Z,17.45
2023-05-19T08:42:47.584Z,17.56
2023-05-19T08:45:16.123Z,17.27
2023-05-19T08:47:47.590Z,17.21
2023-05-19T08:50:21.551Z,17.06
2023-05-19T08:53:18.246Z,17.36
2023-05-19T08:56:00.065Z,17.14
2023-05-19T08:58:28.981Z,17.11
2023-05-19T09:00:59.216Z,17.19
2023-05-19T09:03:30.013Z,17.28
2023-05-19T09:06:01.253Z,17.11
2023-05-19T09:08:31.138Z,16.80
2023-05-19T09:11:01.005Z,16.70
2023-05-19T09:13:29.656Z,16.80
2023-05-19T09:16:18.307Z,17.01
2023-05-19T09:18:57.044Z,17.32
2023-05-19T09:21:37.063Z,17.57
2023-05-19T09:24:12.107Z,17.61
2023-05-19T09:26:42.615Z,17.56
2023-05-19T09:29:18.177Z,17.45
2023-05-19T09:34:59.296Z,17.62
2023-05-19T09:37:30.659Z,17.53
2023-05-19T09:39:59.825Z,17.38
2023-05-19T09:42:33.090Z,17.27
2023-05-19T09:45:04.378Z,17.39
2023-05-19T09:47:44.045Z,17.61
2023-05-19T09:50:15.641Z,18.01
2023-05-19T09:52:50.504Z,17.74
2023-05-19T09:55:31.894Z,17.76
2023-05-19T09:58:03.941Z,17.96
2023-05-19T10:00:34.134Z,17.91
2023-05-19T10:03:05.491Z,17.80
2023-05-19T10:05:34.459Z,17.66
2023-05-19T10:08:07.443Z,17.79
2023-05-19T10:10:40.140Z,18.01
2023-05-19T10:13:08.938Z,17.90
2023-05-19T10:15:50.063Z,18.18
2023-05-19T10:18:30.028Z,18.19
2023-05-19T10:20:59.512Z,18.45
2023-05-19T10:23:27.840Z,18.18
2023-05-19T10:25:59.843Z,18.28
2023-05-19T10:28:41.483Z,18.11
2023-05-19T10:31:16.551Z,18.34
2023-05-19T10:34:13.496Z,18.51
2023-05-19T10:36:46.537Z,18.37
2023-05-19T10:39:29.400Z,18.35
2023-05-19T10:42:12.831Z,18.48
2023-05-19T10:45:19.139Z,18.21
2023-05-19T10:47:48.000Z,18.21
2023-05-19T10:50:17.565Z,18.19
2023-05-19T10:53:00.545Z,18.27
2023-05-19T10:56:17.261Z,17.89
2023-05-19T10:58:47.184Z,17.96
2023-05-19T11:01:20.164Z,17.83
2023-05-19T11:03:57.754Z,17.90
2023-05-19T11:06:31.315Z,18.00
2023-05-19T11:09:19.772Z,18.29
2023-05-19T11:11:55.735Z,18.19
2023-05-19T11:14:27.991Z,18.38
2023-05-19T11:17:00.345Z,18.39
2023-05-19T11:19:35.227Z,18.17
2023-05-19T11:22:12.416Z,18.21
2023-05-19T11:24:52.458Z,18.48
2023-05-19T11:27:21.941Z,18.79
2023-05-19T11:29:51.924Z,18.76
2023-05-19T11:32:22.720Z,18.72
2023-05-19T11:34:51.089Z,18.48
2023-05-19T11:37:19.107Z,18.59
2023-05-19T11:39:47.833Z,18.74
2023-05-19T11:42:16.378Z,18.49
2023-05-19T11:44:47.328Z,18.62
2023-05-19T11:47:17.058Z,18.44
2023-05-19T11:49:50.255Z,18.63
2023-05-19T11:52:20.947Z,18.89
2023-05-19T11:54:51.836Z,18.96
2023-05-19T11:57:22.903Z,19.08
2023-05-19T11:59:54.630Z,18.72
2023-05-19T12:02:27.805Z,18.37
2023-05-19T12:04:56.098Z,18.08
2023-05-19T12:07:27.138Z,18.52
2023-05-19T12:09:56.784Z,19.00
2023-05-19T12:12:29.572Z,18.67
2023-05-19T12:14:57.870Z,18.77
2023-05-19T12:17:26.253Z,18.84
2023-05-19T12:19:55.174Z,18.76
2023-05-19T12:22:23.578Z,18.80
2023-05-19T12:24:51.986Z,19.04
2023-05-19T12:27:24.681Z,19.19
2023-05-19T12:29:54.763Z,19.08
2023-05-19T12:32:29.250Z,19.15
2023-05-19T12:35:03.450Z,19.46
2023-05-19T12:37:35.482Z,19.08
2023-05-19T12:40:04.858Z,18.89
2023-05-19T12:42:35.466Z,18.70
2023-05-19T12:45:04.893Z,18.93
2023-05-19T12:47:36.499Z,18.73
2023-05-19T12:50:10.364Z,19.00
2023-05-19T12:52:45.155Z,19.17
2023-05-19T12:55:14.409Z,19.21
2023-05-19T12:57:45.151Z,19.29
2023-05-19T13:00:20.865Z,19.18
2023-05-19T13:03:05.619Z,19.25
2023-05-19T13:05:43.700Z,19.32
2023-05-19T13:08:20.250Z,19.27
2023-05-19T13:10:52.229Z,19.46
2023-05-19T13:13:20.294Z,19.51
2023-05-19T13:15:49.308Z,19.44
2023-05-19T13:18:18.514Z,19.21
2023-05-19T13:20:49.325Z,19.01
2023-05-19T13:23:18.626Z,18.86
2023-05-19T13:25:46.994Z,18.99
2023-05-19T13:28:15.168Z,18.82
2023-05-19T13:30:45.227Z,19.10
2023-05-19T13:33:13.558Z,19.27
2023-05-19T13:35:42.355Z,19.46
2023-05-19T13:38:11.161Z,19.45
2023-05-19T13:40:40.531Z,19.59
2023-05-19T13:43:10.115Z,19.51
2023-05-19T13:45:39.075Z,19.58
2023-05-19T13:48:07.725Z,19.72
2023-05-19T13:50:36.765Z,19.73
2023-05-19T13:53:05.558Z,19.65
2023-05-19T13:55:34.453Z,19.52
2023-05-19T13:58:11.110Z,19.55
2023-05-19T14:00:39.847Z,19.63
2023-05-19T14:03:08.178Z,19.54
2023-05-19T14:05:37.444Z,19.45
2023-05-19T14:08:05.872Z,19.59
2023-05-19T14:10:33.997Z,19.76
2023-05-19T14:15:37.735Z,19.86
2023-05-19T14:18:06.889Z,19.82
2023-05-19T14:20:36.098Z,19.54
2023-05-19T14:23:04.323Z,19.48
2023-05-19T14:25:32.678Z,19.49
2023-05-19T14:28:00.950Z,19.58
2023-05-19T14:30:29.211Z,19.73
2023-05-19T14:32:57.455Z,19.77
2023-05-19T14:35:26.094Z,19.55
2023-05-19T14:37:54.564Z,19.41
2023-05-19T14:40:22.960Z,19.41
2023-05-19T14:42:51.251Z,19.45
2023-05-19T14:45:19.440Z,19.59
2023-05-19T14:47:48.034Z,19.54
2023-05-19T14:50:16.429Z,19.66
2023-05-19T14:52:44.442Z,19.67
2023-05-19T14:55:12.600Z,19.58
2023-05-19T14:57:40.925Z,19.45
2023-05-19T15:00:10.341Z,19.62
2023-05-19T15:02:38.668Z,19.41
2023-05-19T15:05:07.228Z,19.41
2023-05-19T15:07:35.535Z,19.31
2023-05-19T15:10:04.586Z,19.36
2023-05-19T15:12:33.314Z,19.41
2023-05-19T15:15:01.369Z,19.48
2023-05-19T15:17:29.300Z,19.73
2023-05-19T15:19:57.718Z,19.73
2023-05-19T15:22:26.366Z,19.72
2023-05-19T15:24:54.678Z,19.69
2023-05-19T15:27:23.448Z,19.73
2023-05-19T15:29:51.728Z,19.76
2023-05-19T15:32:20.420Z,19.69
2023-05-19T15:34:48.702Z,19.55
2023-05-19T15:37:16.952Z,19.45
2023-05-19T15:39:45.020Z,19.56
2023-05-19T15:42:13.565Z,19.41
2023-05-19T15:44:41.900Z,19.41
2023-05-19T15:47:10.080Z,19.63
2023-05-19T15:49:38.157Z,19.73
2023-05-19T15:52:06.638Z,19.86
2023-05-19T15:54:34.856Z,19.86
2023-05-19T15:57:03.078Z,19.87
2023-05-19T15:59:32.637Z,20.00
2023-05-19T16:02:00.901Z,20.01
2023-05-19T16:04:29.574Z,19.84
2023-05-19T16:06:58.131Z,19.91
2023-05-19T16:09:25.984Z,20.03
2023-05-19T16:11:54.016Z,19.91
2023-05-19T16:14:22.593Z,19.65
2023-05-19T16:16:51.038Z,19.52
2023-05-19T16:19:19.374Z,19.34
2023-05-19T16:21:48.086Z,19.24
2023-05-19T16:24:16.289Z,19.15
2023-05-19T16:26:44.470Z,19.14
2023-05-19T16:29:12.617Z,19.10
2023-05-19T16:31:40.956Z,19.15
2023-05-19T16:34:09.369Z,19.25
2023-05-19T16:36:37.492Z,19.24
2023-05-19T16:39:05.705Z,19.15
2023-05-19T16:41:33.632Z,19.17
2023-05-19T16:44:02.528Z,19.12
2023-05-19T16:46:31.516Z,19.18
2023-05-19T16:48:59.748Z,19.19
2023-05-19T16:51:27.733Z,19.35
2023-05-19T16:53:55.772Z,19.44
2023-05-19T16:56:23.825Z,19.36
2023-05-19T16:58:52.978Z,19.12
2023-05-19T17:01:21.661Z,18.97
2023-05-19T17:03:49.887Z,19.00
2023-05-19T17:06:19.742Z,18.83
2023-05-19T17:08:47.707Z,18.72
2023-05-19T17:11:15.862Z,18.70
2023-05-19T17:13:43.934Z,18.72
2023-05-19T17:16:12.047Z,18.82
2023-05-19T17:18:40.098Z,18.86
2023-05-19T17:21:11.126Z,18.93
2023-05-19T17:23:39.382Z,18.87
2023-05-19T17:26:07.894Z,18.82
2023-05-19T17:28:36.382Z,18.77
2023-05-19T17:31:13.157Z,18.69
2023-05-19T17:33:41.774Z,18.51
2023-05-19T17:36:10.277Z,18.48
2023-05-19T17:38:40.381Z,18.35
2023-05-19T17:41:14.195Z,18.35
2023-05-19T17:43:43.143Z,18.29
2023-05-19T17:46:12.330Z,18.25
2023-05-19T17:48:40.695Z,18.25
2023-05-19T17:51:09.293Z,18.21
2023-05-19T17:53:41.069Z,18.25
2023-05-19T17:56:12.220Z,18.22
2023-05-19T17:58:41.308Z,18.25
2023-05-19T18:01:09.972Z,18.22
2023-05-19T18:03:38.658Z,18.21
2023-05-19T18:06:08.364Z,18.12
2023-05-19T18:11:20.159Z,18.05
2023-05-19T18:13:48.492Z,18.02
2023-05-19T18:16:18.996Z,18.00
2023-05-19T18:18:50.739Z,17.91
2023-05-19T18:21:19.749Z,17.86
2023-05-19T18:23:55.617Z,17.76
2023-05-19T18:26:31.029Z,17.72
2023-05-19T18:29:05.147Z,17.62
2023-05-19T18:31:39.275Z,17.55
2023-05-19T18:34:08.480Z,17.48
2023-05-19T18:36:36.931Z,17.43
2023-05-19T18:39:05.565Z,17.36
2023-05-19T18:41:36.823Z,17.24
2023-05-19T18:44:09.692Z,17.15
2023-05-19T18:47:18.303Z,17.06
2023-05-19T18:52:23.140Z,16.94
2023-05-19T18:53:03.771Z,16.87
2023-05-19T18:55:37.084Z,16.74
2023-05-19T18:58:13.026Z,16.65
2023-05-19T19:01:19.029Z,16.55
2023-05-19T19:03:33.541Z,16.53
2023-05-19T19:06:30.464Z,16.46
2023-05-19T19:09:10.749Z,16.42
2023-05-19T19:11:54.918Z,16.35
2023-05-19T19:14:47.314Z,16.29
2023-05-19T19:17:25.990Z,16.28
2023-05-19T19:20:05.167Z,16.22
2023-05-19T19:22:50.932Z,16.17
2023-05-19T19:26:39.347Z,16.14
2023-05-19T19:28:37.895Z,16.01
2023-05-19T19:32:12.926Z,15.94
2023-05-19T19:34:35.034Z,15.82
2023-05-19T19:37:14.945Z,15.74
2023-05-19T19:40:02.834Z,15.70
2023-05-19T19:42:56.301Z,15.62
2023-05-19T19:45:32.338Z,15.55
2023-05-19T19:48:23.276Z,15.42
2023-05-19T19:53:57.100Z,15.39
2023-05-19T19:54:59.486Z,15.32
2023-05-19T19:57:56.256Z,15.21
2023-05-19T20:01:17.230Z,15.15
2023-05-19T20:04:12.964Z,15.01
2023-05-19T20:06:54.107Z,14.94
2023-05-19T20:09:54.091Z,14.81
2023-05-19T20:12:58.182Z,14.72
2023-05-19T20:15:30.398Z,14.66
2023-05-19T20:18:21.218Z,14.62
2023-05-19T20:21:37.226Z,14.56
2023-05-19T20:24:14.929Z,14.55
2023-05-19T20:27:01.265Z,14.47
2023-05-19T20:29:47.514Z,14.38
2023-05-19T20:32:29.621Z,14.39
2023-05-19T20:35:13.026Z,14.42
2023-05-19T20:37:58.685Z,14.47
2023-05-19T20:40:46.391Z,14.39
2023-05-19T20:43:25.724Z,14.38
2023-05-19T20:46:11.528Z,14.32
2023-05-19T20:49:36.286Z,14.22
2023-05-19T20:58:38.192Z,14.00
2023-05-19T21:01:18.499Z,13.95
2023-05-19T21:11:24.760Z,13.81
2023-05-19T21:13:39.358Z,13.73
2023-05-19T21:16:21.991Z,13.67
2023-05-19T21:19:33.498Z,13.69
2023-05-19T21:22:28.170Z,13.62
2023-05-19T21:25:20.430Z,13.57
2023-05-19T21:30:38.201Z,13.47
2023-05-19T21:33:12.374Z,13.43
2023-05-19T21:36:05.915Z,13.35
2023-05-19T21:41:30.951Z,13.32
2023-05-19T21:42:13.128Z,13.26
2023-05-19T21:47:35.960Z,13.21
2023-05-19T21:48:16.424Z,13.15
2023-05-19T21:51:04.694Z,13.10
2023-05-19T21:53:42.246Z,13.07
2023-05-19T21:56:30.731Z,13.00
2023-05-19T22:02:16.931Z,12.93
2023-05-19T22:04:50.375Z,12.87
2023-05-19T22:07:55.851Z,12.81
2023-05-19T22:10:54.618Z,12.77
2023-05-19T22:13:44.593Z,12.72
2023-05-19T22:19:24.988Z,12.61
2023-05-19T22:22:02.016Z,12.59
2023-05-19T22:25:11.992Z,12.56
2023-05-19T22:27:46.830Z,12.47
2023-05-19T22:30:41.054Z,12.42
2023-05-19T22:33:26.241Z,12.36
2023-05-19T22:36:14.851Z,12.33
2023-05-19T22:38:49.427Z,12.30
2023-05-19T22:41:33.518Z,12.28
2023-05-19T22:46:58.751Z,12.12
2023-05-19T22:49:44.083Z,12.06
2023-05-19T22:52:24.290Z,12.02
2023-05-19T22:55:10.817Z,11.95
2023-05-19T22:57:39.220Z,11.90
2023-05-19T23:00:08.322Z,11.88
2023-05-19T23:02:36.289Z,11.81
2023-05-19T23:05:04.487Z,11.77
2023-05-19T23:07:32.904Z,11.74
2023-05-19T23:10:13.696Z,11.73
2023-05-19T23:12:49.230Z,11.66
2023-05-19T23:15:26.746Z,11.56
2023-05-19T23:17:57.207Z,11.47
2023-05-19T23:20:25.356Z,11.40
2023-05-19T23:23:00.691Z,11.39
2023-05-19T23:25:50.953Z,11.32
2023-05-19T23:28:21.734Z,11.30
2023-05-19T23:30:54.361Z,11.23
2023-05-19T23:33:22.768Z,11.18
2023-05-19T23:35:50.948Z,11.11
2023-05-19T23:38:19.126Z,11.08
2023-05-19T23:40:49.338Z,11.05
2023-05-19T23:43:27.014Z,11.01
2023-05-19T23:45:55.550Z,11.00
2023-05-19T23:48:23.748Z,11.01
2023-05-19T23:51:02.584Z,10.94
2023-05-19T23:53:51.115Z,10.94
2023-05-19T23:56:21.415Z,10.91
2023-05-19T23:58:52.244Z,10.88
